createdAt,value
2018-10-07T00:00:59.681Z,7.80
2018-10-07T00:03:27.177Z,7.80
2018-10-07T00:05:54.758Z,7.90
2018-10-07T00:08:22.360Z,7.90
2018-10-07T00:10:49.991Z,7.90
2018-10-07T00:13:17.549Z,7.90
2018-10-07T00:15:45.099Z,7.90
2018-10-07T00:18:12.586Z,7.90
2018-10-07T00:20:40.053Z,8.00
2018-10-07T00:23:08.149Z,7.90
2018-10-07T00:25:35.565Z,8.00
2018-10-07T00:28:03.009Z,8.00
2018-10-07T00:30:30.570Z,7.90
2018-10-07T00:32:57.986Z,7.90
2018-10-07T00:35:25.389Z,7.90
2018-10-07T00:37:52.805Z,7.80
2018-10-07T00:40:20.212Z,7.80
2018-10-07T00:42:47.645Z,7.70
2018-10-07T00:45:15.081Z,7.70
2018-10-07T00:47:42.530Z,7.80
2018-10-07T00:50:09.976Z,7.80
2018-10-07T00:52:37.473Z,7.80
2018-10-07T00:55:04.905Z,7.70
2018-10-07T00:57:32.349Z,7.70
2018-10-07T00:59:59.788Z,7.60
2018-10-07T01:02:27.203Z,7.60
2018-10-07T01:04:54.680Z,7.50
2018-10-07T01:07:22.217Z,7.50
2018-10-07T01:09:49.628Z,7.50
2018-10-07T01:12:17.133Z,7.40
2018-10-07T01:14:44.573Z,7.30
2018-10-07T01:17:12.009Z,7.20
2018-10-07T01:19:39.517Z,7.10
2018-10-07T01:22:06.980Z,7.10
2018-10-07T01:24:34.374Z,7.00
2018-10-07T01:27:01.829Z,6.90
2018-10-07T01:29:29.224Z,6.80
2018-10-07T01:31:56.622Z,6.80
2018-10-07T01:34:24.165Z,6.80
2018-10-07T01:36:51.609Z,6.70
2018-10-07T01:39:19.022Z,6.60
2018-10-07T01:41:46.450Z,6.50
2018-10-07T01:44:13.827Z,6.40
2018-10-07T01:46:41.299Z,6.20
2018-10-07T01:49:08.700Z,6.10
2018-10-07T01:51:36.137Z,6.10
2018-10-07T01:54:03.571Z,6.10
2018-10-07T01:56:31.001Z,6.00
2018-10-07T01:58:58.433Z,6.00
2018-10-07T02:01:25.830Z,5.90
2018-10-07T02:03:53.233Z,5.80
2018-10-07T02:06:20.726Z,5.80
2018-10-07T02:08:48.113Z,5.80
2018-10-07T02:11:15.494Z,5.80
2018-10-07T02:13:42.993Z,5.80
2018-10-07T02:16:10.418Z,5.80
2018-10-07T02:18:37.828Z,5.80
2018-10-07T02:21:05.733Z,5.80
2018-10-07T02:23:33.165Z,5.70
2018-10-07T02:26:00.616Z,5.70
2018-10-07T02:28:28.006Z,5.70
2018-10-07T02:30:55.486Z,5.60
2018-10-07T02:33:22.905Z,5.60
2018-10-07T02:35:50.318Z,5.60
2018-10-07T02:38:17.724Z,5.50
2018-10-07T02:40:45.130Z,5.50
2018-10-07T02:45:34.538Z,5.50
2018-10-07T02:48:02.024Z,5.50
2018-10-07T02:50:29.533Z,5.50
2018-10-07T02:52:57.036Z,5.50
2018-10-07T02:55:26.029Z,5.40
2018-10-07T02:57:54.533Z,5.40
2018-10-07T03:00:21.993Z,5.40
2018-10-07T03:02:50.103Z,5.40
2018-10-07T03:05:17.551Z,5.40
2018-10-07T03:07:45.320Z,5.40
2018-10-07T03:10:12.759Z,5.30
2018-10-07T03:12:40.246Z,5.30
2018-10-07T03:15:07.745Z,5.30
2018-10-07T03:17:35.177Z,5.30
2018-10-07T03:20:02.635Z,5.20
2018-10-07T03:22:30.352Z,5.30
2018-10-07T03:24:57.747Z,5.20
2018-10-07T03:27:25.166Z,5.20
2018-10-07T03:29:53.001Z,5.20
2018-10-07T03:32:20.556Z,5.20
2018-10-07T03:34:47.980Z,5.10
2018-10-07T03:37:15.601Z,5.10
2018-10-07T03:39:43.024Z,5.10
2018-10-07T03:42:10.483Z,5.10
2018-10-07T03:44:37.893Z,5.10
2018-10-07T03:47:05.387Z,5.10
2018-10-07T03:49:32.790Z,5.10
2018-10-07T03:52:00.213Z,5.10
2018-10-07T03:54:27.606Z,5.10
2018-10-07T03:56:58.616Z,5.10
2018-10-07T03:59:26.057Z,5.00
2018-10-07T04:01:54.162Z,5.10
2018-10-07T04:04:21.570Z,5.10
2018-10-07T04:06:49.074Z,5.10
2018-10-07T04:09:16.534Z,5.10
2018-10-07T04:11:43.929Z,5.10
2018-10-07T04:14:12.420Z,5.20
2018-10-07T04:16:39.925Z,5.10
2018-10-07T04:19:08.089Z,5.10
2018-10-07T04:21:35.464Z,5.10
2018-10-07T04:24:03.338Z,5.20
2018-10-07T04:26:30.849Z,5.10
2018-10-07T04:28:58.284Z,5.10
2018-10-07T04:31:25.801Z,5.10
2018-10-07T04:33:53.233Z,5.10
2018-10-07T04:36:20.773Z,5.10
2018-10-07T04:38:48.150Z,5.10
2018-10-07T04:41:15.671Z,5.00
2018-10-07T04:43:43.056Z,5.00
2018-10-07T04:46:10.530Z,4.90
2018-10-07T04:48:37.953Z,4.80
2018-10-07T04:51:05.722Z,4.70
2018-10-07T04:53:33.150Z,4.70
2018-10-07T04:56:00.744Z,4.60
2018-10-07T04:58:28.165Z,4.60
2018-10-07T05:00:55.625Z,4.60
2018-10-07T05:03:23.010Z,4.60
2018-10-07T05:05:50.601Z,4.60
2018-10-07T05:08:18.293Z,4.60
2018-10-07T05:10:48.963Z,4.50
2018-10-07T05:13:26.531Z,4.50
2018-10-07T05:15:58.561Z,4.50
2018-10-07T05:18:26.030Z,4.50
2018-10-07T05:20:54.082Z,4.50
2018-10-07T05:23:21.682Z,4.40
2018-10-07T05:25:49.312Z,4.50
2018-10-07T05:28:17.173Z,4.50
2018-10-07T05:30:44.601Z,4.50
2018-10-07T05:33:12.082Z,4.50
2018-10-07T05:35:39.502Z,4.50
2018-10-07T05:38:06.962Z,4.50
2018-10-07T05:40:34.402Z,4.50
2018-10-07T05:43:01.806Z,4.50
2018-10-07T05:45:29.221Z,4.50
2018-10-07T05:47:56.605Z,4.50
2018-10-07T05:50:24.788Z,4.50
2018-10-07T05:52:52.653Z,4.50
2018-10-07T05:55:20.654Z,4.50
2018-10-07T05:57:49.164Z,4.40
2018-10-07T06:02:53.357Z,4.40
2018-10-07T06:05:20.830Z,4.50
2018-10-07T06:07:48.504Z,4.60
2018-10-07T06:10:16.049Z,4.60
2018-10-07T06:12:43.537Z,4.60
2018-10-07T06:15:45.441Z,4.60
2018-10-07T06:18:12.863Z,4.60
2018-10-07T06:20:40.525Z,4.40
2018-10-07T06:23:08.181Z,4.40
2018-10-07T06:25:35.629Z,4.50
2018-10-07T06:28:03.311Z,4.60
2018-10-07T06:30:30.786Z,4.70
2018-10-07T06:32:58.187Z,4.70
2018-10-07T06:35:26.080Z,4.70
2018-10-07T06:37:54.245Z,4.60
2018-10-07T06:40:21.787Z,4.40
2018-10-07T06:42:49.217Z,4.40
2018-10-07T06:45:16.772Z,4.30
2018-10-07T06:47:44.231Z,4.20
2018-10-07T06:50:11.666Z,4.30
2018-10-07T06:52:39.187Z,4.30
2018-10-07T06:55:06.761Z,4.30
2018-10-07T06:57:34.231Z,4.30
2018-10-07T07:00:01.665Z,4.40
2018-10-07T07:02:29.446Z,4.40
2018-10-07T07:04:56.904Z,4.50
2018-10-07T07:07:24.893Z,4.60
2018-10-07T07:09:52.812Z,4.70
2018-10-07T07:12:20.353Z,4.70
2018-10-07T07:14:47.885Z,4.80
2018-10-07T07:17:15.327Z,4.90
2018-10-07T07:19:42.899Z,4.90
2018-10-07T07:22:10.429Z,4.90
2018-10-07T07:24:38.033Z,5.10
2018-10-07T07:27:05.541Z,5.10
2018-10-07T07:29:33.107Z,5.10
2018-10-07T07:32:00.588Z,5.10
2018-10-07T07:34:28.163Z,5.20
2018-10-07T07:36:55.682Z,5.20
2018-10-07T07:39:23.173Z,5.30
2018-10-07T07:41:50.630Z,5.30
2018-10-07T07:44:18.058Z,5.30
2018-10-07T07:46:45.497Z,5.20
2018-10-07T07:49:13.026Z,5.20
2018-10-07T07:51:40.398Z,5.30
2018-10-07T07:54:07.886Z,5.30
2018-10-07T07:56:35.288Z,5.40
2018-10-07T07:59:02.701Z,5.50
2018-10-07T08:01:30.207Z,5.60
2018-10-07T08:03:57.645Z,5.60
2018-10-07T08:06:25.149Z,5.70
2018-10-07T08:11:28.481Z,5.70
2018-10-07T08:13:55.916Z,5.70
2018-10-07T08:16:23.345Z,5.70
2018-10-07T08:18:50.772Z,5.80
2018-10-07T08:21:18.220Z,5.90
2018-10-07T08:23:45.741Z,6.00
2018-10-07T08:26:13.097Z,6.00
2018-10-07T08:28:40.502Z,6.00
2018-10-07T08:31:07.978Z,6.00
2018-10-07T08:33:35.398Z,6.00
2018-10-07T08:36:02.861Z,6.00
2018-10-07T08:38:30.362Z,6.00
2018-10-07T08:40:57.795Z,6.00
2018-10-07T08:43:25.229Z,6.00
2018-10-07T08:45:52.720Z,6.00
2018-10-07T08:48:20.115Z,6.10
2018-10-07T08:50:47.522Z,6.10
2018-10-07T08:53:14.981Z,6.20
2018-10-07T08:55:42.404Z,6.40
2018-10-07T08:58:09.892Z,6.40
2018-10-07T09:00:37.346Z,6.30
2018-10-07T09:03:04.816Z,6.30
2018-10-07T09:05:32.262Z,6.40
2018-10-07T09:07:59.689Z,6.50
2018-10-07T09:10:27.093Z,6.60
2018-10-07T09:12:54.552Z,6.70
2018-10-07T09:15:21.965Z,6.70
2018-10-07T09:17:49.405Z,6.80
2018-10-07T09:20:17.035Z,6.80
2018-10-07T09:22:44.476Z,6.70
2018-10-07T09:25:11.919Z,6.80
2018-10-07T09:27:39.555Z,6.90
2018-10-07T09:30:07.039Z,6.90
2018-10-07T09:32:34.580Z,7.00
2018-10-07T09:35:02.002Z,7.00
2018-10-07T09:37:29.497Z,7.00
2018-10-07T09:39:56.974Z,7.10
2018-10-07T09:42:24.409Z,7.20
2018-10-07T09:44:51.853Z,7.30
2018-10-07T09:47:19.318Z,7.40
2018-10-07T09:49:46.793Z,7.50
2018-10-07T09:52:14.244Z,7.50
2018-10-07T09:54:41.662Z,7.60
2018-10-07T09:57:09.121Z,7.70
2018-10-07T09:59:36.579Z,7.70
2018-10-07T10:02:04.045Z,7.70
2018-10-07T10:04:31.575Z,7.80
2018-10-07T10:06:58.983Z,7.90
2018-10-07T10:09:26.366Z,7.90
2018-10-07T10:11:54.081Z,7.90
2018-10-07T10:14:21.577Z,7.90
2018-10-07T10:17:22.057Z,8.10
2018-10-07T10:20:09.453Z,8.20
2018-10-07T10:22:50.122Z,8.20
2018-10-07T10:25:42.714Z,8.30
2018-10-07T10:28:22.993Z,8.30
2018-10-07T10:31:03.465Z,8.40
2018-10-07T10:33:33.236Z,8.30
2018-10-07T10:36:08.446Z,8.40
2018-10-07T10:40:48.774Z,8.50
2018-10-07T10:43:20.467Z,8.40
2018-10-07T10:46:06.842Z,8.60
2018-10-07T10:48:39.746Z,8.60
2018-10-07T10:51:22.192Z,8.60
2018-10-07T10:53:56.446Z,8.70
2018-10-07T10:56:27.106Z,8.80
2018-10-07T10:59:05.246Z,8.80
2018-10-07T11:02:43.576Z,8.90
2018-10-07T11:05:53.294Z,8.90
2018-10-07T11:08:36.775Z,9.00
2018-10-07T11:11:23.766Z,9.10
2018-10-07T11:14:02.829Z,9.20
2018-10-07T11:18:41.729Z,9.10
2018-10-07T11:21:25.979Z,9.10
2018-10-07T11:26:08.163Z,9.30
2018-10-07T11:28:40.517Z,9.40
2018-10-07T11:33:17.193Z,9.40
2018-10-07T11:35:50.897Z,9.50
2018-10-07T11:38:30.848Z,9.70
2018-10-07T11:41:15.604Z,9.60
2018-10-07T11:43:58.047Z,9.70
2018-10-07T11:46:39.632Z,9.70
2018-10-07T11:49:18.206Z,9.80
2018-10-07T11:51:53.157Z,9.80
2018-10-07T11:54:40.262Z,9.90
2018-10-07T11:57:07.673Z,9.90
2018-10-07T11:59:35.135Z,9.90
2018-10-07T12:02:02.662Z,9.90
2018-10-07T12:04:30.017Z,9.90
2018-10-07T12:06:57.474Z,9.90
2018-10-07T12:09:24.875Z,10.00
2018-10-07T12:11:52.299Z,10.00
2018-10-07T12:14:19.766Z,10.00
2018-10-07T12:16:47.217Z,10.00
2018-10-07T12:19:14.606Z,10.10
2018-10-07T12:21:42.097Z,10.10
2018-10-07T12:24:09.565Z,10.20
2018-10-07T12:26:36.960Z,10.30
2018-10-07T12:29:04.446Z,10.30
2018-10-07T12:31:31.858Z,10.30
2018-10-07T12:33:59.244Z,10.30
2018-10-07T12:36:26.717Z,10.40
2018-10-07T12:38:54.154Z,10.50
2018-10-07T12:41:21.579Z,10.40
2018-10-07T12:43:48.993Z,10.40
2018-10-07T12:46:16.379Z,10.40
2018-10-07T12:48:43.857Z,10.40
2018-10-07T12:51:11.302Z,10.40
2018-10-07T12:53:38.710Z,10.40
2018-10-07T12:56:06.187Z,10.50
2018-10-07T12:58:33.580Z,10.40
2018-10-07T13:01:00.997Z,10.50
2018-10-07T13:03:28.444Z,10.70
2018-10-07T13:08:15.789Z,10.70
2018-10-07T13:10:43.241Z,10.60
2018-10-07T13:13:10.752Z,10.50
2018-10-07T13:15:38.201Z,10.50
2018-10-07T13:18:05.638Z,10.50
2018-10-07T13:20:33.087Z,10.50
2018-10-07T13:23:00.521Z,10.60
2018-10-07T13:25:28.130Z,10.60
2018-10-07T13:27:55.574Z,10.70
2018-10-07T13:30:23.054Z,10.70
2018-10-07T13:32:50.480Z,10.60
2018-10-07T13:35:17.902Z,10.50
2018-10-07T13:37:45.337Z,10.40
2018-10-07T13:40:12.784Z,10.30
2018-10-07T13:42:40.189Z,10.40
2018-10-07T13:45:07.635Z,10.40
2018-10-07T13:47:35.078Z,10.30
2018-10-07T13:50:02.530Z,10.30
2018-10-07T13:52:30.011Z,10.40
2018-10-07T13:54:57.441Z,10.40
2018-10-07T13:57:24.829Z,10.40
2018-10-07T13:59:52.240Z,10.40
2018-10-07T14:02:19.644Z,10.40
2018-10-07T14:04:47.137Z,10.50
2018-10-07T14:07:14.584Z,10.50
2018-10-07T14:09:41.984Z,10.50
2018-10-07T14:12:09.398Z,10.40
2018-10-07T14:14:36.813Z,10.40
2018-10-07T14:17:04.497Z,10.40
2018-10-07T14:19:31.917Z,10.40
2018-10-07T14:21:59.362Z,10.50
2018-10-07T14:24:26.845Z,10.40
2018-10-07T14:26:54.241Z,10.40
2018-10-07T14:29:21.714Z,10.40
2018-10-07T14:31:49.133Z,10.30
2018-10-07T14:34:16.576Z,10.30
2018-10-07T14:36:43.985Z,10.20
2018-10-07T14:39:12.600Z,10.20
2018-10-07T14:41:40.110Z,10.10
2018-10-07T14:44:07.566Z,10.00
2018-10-07T14:46:35.074Z,10.00
2018-10-07T14:49:02.564Z,9.90
2018-10-07T14:51:30.155Z,9.90
2018-10-07T14:53:57.447Z,9.80
2018-10-07T14:56:24.857Z,9.70
2018-10-07T14:58:52.292Z,9.70
2018-10-07T15:01:19.688Z,9.70
2018-10-07T15:03:47.096Z,9.60
2018-10-07T15:06:14.552Z,9.50
2018-10-07T15:08:41.994Z,9.30
2018-10-07T15:11:09.430Z,9.10
2018-10-07T15:13:37.017Z,8.90
2018-10-07T15:16:04.416Z,8.90
2018-10-07T15:18:31.861Z,8.80
2018-10-07T15:20:59.326Z,8.80
2018-10-07T15:23:26.798Z,8.70
2018-10-07T15:25:54.277Z,8.60
2018-10-07T15:28:21.852Z,8.50
2018-10-07T15:30:49.668Z,8.40
2018-10-07T15:33:17.140Z,8.30
2018-10-07T15:35:44.639Z,8.20
2018-10-07T15:38:12.073Z,8.20
2018-10-07T15:40:39.472Z,8.10
2018-10-07T15:43:06.915Z,8.00
2018-10-07T15:45:34.348Z,7.90
2018-10-07T15:48:01.732Z,7.80
2018-10-07T15:50:29.191Z,7.80
2018-10-07T15:52:56.612Z,7.80
2018-10-07T15:55:24.026Z,7.60
2018-10-07T15:57:51.489Z,7.60
2018-10-07T16:00:18.894Z,7.50
2018-10-07T16:02:46.322Z,7.50
2018-10-07T16:05:13.745Z,7.50
2018-10-07T16:07:41.174Z,7.60
2018-10-07T16:10:08.639Z,7.60
2018-10-07T16:12:36.044Z,7.60
2018-10-07T16:15:03.636Z,7.50
2018-10-07T16:17:31.050Z,7.40
2018-10-07T16:19:58.550Z,7.30
2018-10-07T16:22:25.968Z,7.10
2018-10-07T16:24:53.395Z,6.90
2018-10-07T16:27:20.784Z,6.80
2018-10-07T16:29:48.184Z,6.60
2018-10-07T16:32:15.620Z,6.50
2018-10-07T16:34:43.016Z,6.40
2018-10-07T16:37:10.456Z,6.30
2018-10-07T16:39:37.852Z,6.20
2018-10-07T16:42:05.325Z,6.10
2018-10-07T16:44:32.737Z,6.00
2018-10-07T16:47:00.161Z,5.80
2018-10-07T16:49:27.626Z,5.50
2018-10-07T16:51:55.047Z,5.30
2018-10-07T16:54:22.518Z,5.30
2018-10-07T16:56:49.946Z,5.30
2018-10-07T16:59:17.381Z,5.30
2018-10-07T17:01:44.823Z,5.10
2018-10-07T17:04:12.276Z,5.00
2018-10-07T17:06:39.715Z,4.80
2018-10-07T17:09:07.941Z,4.60
2018-10-07T17:11:35.369Z,4.50
2018-10-07T17:14:02.853Z,4.40
2018-10-07T17:16:30.267Z,4.30
2018-10-07T17:18:57.714Z,4.20
2018-10-07T17:21:25.185Z,4.10
2018-10-07T17:23:52.622Z,4.00
2018-10-07T17:26:20.148Z,4.00
2018-10-07T17:28:47.607Z,3.90
2018-10-07T17:31:15.068Z,3.80
2018-10-07T17:33:42.481Z,3.80
2018-10-07T17:36:09.916Z,3.70
2018-10-07T17:38:37.476Z,3.70
2018-10-07T17:41:04.955Z,3.70
2018-10-07T17:43:32.356Z,3.60
2018-10-07T17:45:59.789Z,3.50
2018-10-07T17:48:27.356Z,3.40
2018-10-07T17:50:54.685Z,3.30
2018-10-07T17:53:22.137Z,3.30
2018-10-07T17:55:49.565Z,3.20
2018-10-07T17:58:17.096Z,3.20
2018-10-07T18:00:44.473Z,3.10
2018-10-07T18:03:12.013Z,3.10
2018-10-07T18:05:39.389Z,3.10
2018-10-07T18:08:06.814Z,3.10
2018-10-07T18:10:34.280Z,3.10
2018-10-07T18:13:01.682Z,3.10
2018-10-07T18:15:29.100Z,3.20
2018-10-07T18:17:57.354Z,3.20
2018-10-07T18:20:24.855Z,3.20
2018-10-07T18:22:52.429Z,3.20
2018-10-07T18:25:19.846Z,3.10
2018-10-07T18:27:47.282Z,3.10
2018-10-07T18:30:14.718Z,3.00
2018-10-07T18:32:42.155Z,3.00
2018-10-07T18:35:09.673Z,3.00
2018-10-07T18:37:37.085Z,3.00
2018-10-07T18:40:12.084Z,3.00
2018-10-07T18:42:39.708Z,3.00
2018-10-07T18:45:07.164Z,2.90
2018-10-07T18:47:41.851Z,2.90
2018-10-07T18:50:09.348Z,2.90
2018-10-07T18:52:36.734Z,2.90
2018-10-07T18:55:04.224Z,2.80
2018-10-07T18:57:31.682Z,2.80
2018-10-07T18:59:59.139Z,2.70
2018-10-07T19:02:26.626Z,2.70
2018-10-07T19:04:53.964Z,2.60
2018-10-07T19:07:21.425Z,2.60
2018-10-07T19:09:48.831Z,2.60
2018-10-07T19:12:16.251Z,2.60
2018-10-07T19:14:43.727Z,2.60
2018-10-07T19:17:11.092Z,2.60
2018-10-07T19:19:38.510Z,2.50
2018-10-07T19:22:05.965Z,2.40
2018-10-07T19:24:33.369Z,2.30
2018-10-07T19:27:02.633Z,2.30
2018-10-07T19:32:24.288Z,2.20
2018-10-07T19:34:51.753Z,2.30
2018-10-07T19:37:19.495Z,2.30
2018-10-07T19:39:46.840Z,2.30
2018-10-07T19:42:14.248Z,2.30
2018-10-07T19:44:41.834Z,2.20
2018-10-07T19:47:09.339Z,2.20
2018-10-07T19:49:36.808Z,2.20
2018-10-07T19:52:04.298Z,2.10
2018-10-07T19:54:31.807Z,2.10
2018-10-07T19:56:59.406Z,2.10
2018-10-07T19:59:26.860Z,2.10
2018-10-07T20:01:54.546Z,2.10
2018-10-07T20:04:22.073Z,2.10
2018-10-07T20:06:49.659Z,2.00
2018-10-07T20:09:17.142Z,2.00
2018-10-07T20:11:44.592Z,2.00
2018-10-07T20:14:11.980Z,1.90
2018-10-07T20:16:39.426Z,1.90
2018-10-07T20:19:07.044Z,1.90
2018-10-07T20:21:34.460Z,1.80
2018-10-07T20:24:01.933Z,1.70
2018-10-07T20:26:29.573Z,1.70
2018-10-07T20:28:56.990Z,1.70
2018-10-07T20:31:24.461Z,1.70
2018-10-07T20:33:52.148Z,1.70
2018-10-07T20:36:19.586Z,1.70
2018-10-07T20:38:47.016Z,1.70
2018-10-07T20:41:14.511Z,1.70
2018-10-07T20:43:41.937Z,1.70
2018-10-07T20:46:09.521Z,1.70
2018-10-07T20:48:37.042Z,1.70
2018-10-07T20:51:04.426Z,1.80
2018-10-07T20:53:31.850Z,1.80
2018-10-07T20:55:59.264Z,1.90
2018-10-07T20:58:26.724Z,2.00
2018-10-07T21:00:54.131Z,2.00
2018-10-07T21:03:21.554Z,2.10
2018-10-07T21:05:49.032Z,2.10
2018-10-07T21:08:16.428Z,2.20
2018-10-07T21:10:43.860Z,2.20
2018-10-07T21:13:11.301Z,2.20
2018-10-07T21:15:38.766Z,2.30
2018-10-07T21:18:06.216Z,2.50
2018-10-07T21:20:33.657Z,2.50
2018-10-07T21:23:01.114Z,2.50
2018-10-07T21:25:28.593Z,2.50
2018-10-07T21:27:56.158Z,2.40
2018-10-07T21:30:23.636Z,2.40
2018-10-07T21:32:51.049Z,2.40
2018-10-07T21:35:18.529Z,2.50
2018-10-07T21:37:45.993Z,2.50
2018-10-07T21:40:13.474Z,2.40
2018-10-07T21:42:40.844Z,2.40
2018-10-07T21:45:08.284Z,2.30
2018-10-07T21:47:35.721Z,2.20
2018-10-07T21:50:03.179Z,2.20
2018-10-07T21:52:30.647Z,2.10
2018-10-07T21:54:57.997Z,2.10
2018-10-07T21:57:25.441Z,2.00
2018-10-07T21:59:52.829Z,1.90
2018-10-07T22:02:20.268Z,1.80
2018-10-07T22:04:47.624Z,1.80
2018-10-07T22:07:15.307Z,1.80
2018-10-07T22:09:42.668Z,1.70
2018-10-07T22:12:10.064Z,1.70
2018-10-07T22:14:37.432Z,1.60
2018-10-07T22:17:05.014Z,1.60
2018-10-07T22:19:32.416Z,1.60
2018-10-07T22:21:59.914Z,1.60
2018-10-07T22:24:27.269Z,1.50
2018-10-07T22:26:54.698Z,1.50
2018-10-07T22:29:22.116Z,1.50
2018-10-07T22:31:49.485Z,1.60
2018-10-07T22:34:16.961Z,1.60
2018-10-07T22:36:44.329Z,1.70
2018-10-07T22:39:11.716Z,1.70
2018-10-07T22:41:39.292Z,1.70
2018-10-07T22:44:06.673Z,1.80
2018-10-07T22:46:34.037Z,1.80
2018-10-07T22:49:01.439Z,1.80
2018-10-07T22:51:28.824Z,1.90
2018-10-07T22:53:56.199Z,2.00
2018-10-07T22:56:23.651Z,2.10
2018-10-07T22:58:51.017Z,2.10
2018-10-07T23:01:18.453Z,2.10
2018-10-07T23:03:45.840Z,2.10
2018-10-07T23:06:13.284Z,2.20
2018-10-07T23:08:40.764Z,2.20
2018-10-07T23:11:08.142Z,2.30
2018-10-07T23:13:35.556Z,2.40
2018-10-07T23:16:02.953Z,2.50
2018-10-07T23:18:31.108Z,2.60
2018-10-07T23:20:58.500Z,2.70
2018-10-07T23:23:25.886Z,2.80
2018-10-07T23:25:53.328Z,2.90
2018-10-07T23:28:20.714Z,3.00
2018-10-07T23:30:48.123Z,3.10
2018-10-07T23:33:15.624Z,3.30
2018-10-07T23:35:43.017Z,3.40
2018-10-07T23:38:10.438Z,3.50
2018-10-07T23:40:37.906Z,3.60
2018-10-07T23:43:05.686Z,3.70
2018-10-07T23:45:33.074Z,3.80
2018-10-07T23:48:00.504Z,3.90
2018-10-07T23:50:27.892Z,4.00
2018-10-07T23:52:55.320Z,4.10
2018-10-07T23:55:22.749Z,4.20
2018-10-07T23:57:50.133Z,4.30
